Time;durP1;ratioP1;P1;durP2;ratioP2;P2;SDS_P1;SDS_P2;PMS_P1;PMS_P2;Temp;Humidity;BMP_temperature;BMP_pressure;BME280_temperature;BME280_humidity;BME280_pressure;Samples;Min_cycle;Max_cycle;Signal;HPM_P1;HPM_P2
2023/04/15 00:01:10;;;;;;;11.52;5.32;;;;;;;8.74;71.12;99032.63;4985429;28;20064;-85
2023/04/15 00:03:37;;;;;;;8.70;5.43;;;;;;;8.69;71.14;99034.88;5015921;28;20045;-85
2023/04/15 00:06:04;;;;;;;11.15;5.57;;;;;;;8.68;70.84;99026.13;4996973;28;20056;-85
2023/04/15 00:08:32;;;;;;;13.32;5.97;;;;;;;8.57;71.43;99023.63;4981258;28;20071;-85
2023/04/15 00:11:01;;;;;;;11.85;6.22;;;;;;;8.51;72.08;99024.19;5002207;28;20045;-85
2023/04/15 00:13:28;;;;;;;9.70;5.20;;;;;;;8.56;71.82;99029.91;4982672;28;20056;-85
2023/04/15 00:15:55;;;;;;;12.90;5.38;;;;;;;8.52;71.09;99030.31;5011992;28;20395;-85
2023/04/15 00:18:23;;;;;;;13.13;5.55;;;;;;;8.55;70.64;99030.88;4988095;28;20378;-85
2023/04/15 00:20:49;;;;;;;13.35;5.30;;;;;;;8.55;70.79;99030.03;5002130;28;20061;-85
2023/04/15 00:23:16;;;;;;;12.90;6.28;;;;;;;8.55;70.68;99036.19;4994504;28;20132;-85
2023/04/15 00:25:43;;;;;;;9.05;5.63;;;;;;;8.48;71.11;99029.78;4997397;28;20054;-85
2023/04/15 00:28:10;;;;;;;10.45;5.22;;;;;;;8.48;71.05;99033.25;4998257;28;20048;-85
2023/04/15 00:30:37;;;;;;;11.90;5.75;;;;;;;8.42;71.33;99030.34;4981934;28;20038;-85
2023/04/15 00:33:04;;;;;;;8.40;6.00;;;;;;;8.44;71.17;99034.50;4979731;28;20054;-85
2023/04/15 00:35:31;;;;;;;11.57;5.65;;;;;;;8.36;71.53;99031.72;5008437;28;20049;-85
2023/04/15 00:37:58;;;;;;;10.10;5.82;;;;;;;8.38;71.18;99029.75;4974377;28;20076;-85
2023/04/15 00:40:26;;;;;;;14.80;6.97;;;;;;;8.45;70.84;99025.59;4994425;28;20107;-84
2023/04/15 00:42:53;;;;;;;8.50;6.03;;;;;;;8.51;70.75;99020.72;4998540;28;20097;-85
2023/04/15 00:45:20;;;;;;;13.13;5.32;;;;;;;8.39;70.90;99018.22;4979988;28;20046;-85
2023/04/15 00:47:47;;;;;;;8.25;5.78;;;;;;;8.27;71.37;99016.69;5012750;28;20041;-85
2023/04/15 00:50:13;;;;;;;10.88;5.60;;;;;;;8.31;71.39;99019.88;4979113;28;20049;-86
2023/04/15 00:52:40;;;;;;;11.38;5.63;;;;;;;8.16;71.70;99022.13;4993192;28;20063;-85
2023/04/15 00:55:08;;;;;;;11.52;5.65;;;;;;;8.13;72.04;99023.25;4967746;28;20049;-85
2023/04/15 00:57:35;;;;;;;12.07;6.20;;;;;;;8.16;71.84;99019.47;4998464;28;20095;-85
2023/04/15 01:00:04;;;;;;;12.45;6.78;;;;;;;8.14;71.82;99022.28;4995560;28;20049;-85
2023/04/15 01:02:32;;;;;;;10.95;5.75;;;;;;;8.19;71.83;99020.06;5009772;28;20100;-85
2023/04/15 01:05:01;;;;;;;10.32;5.10;;;;;;;8.15;71.93;99025.75;4999742;28;20037;-85
2023/04/15 01:07:28;;;;;;;12.82;5.20;;;;;;;8.17;72.00;99026.47;5002209;28;20049;-84
2023/04/15 01:09:54;;;;;;;10.90;4.95;;;;;;;8.11;71.72;99016.41;4975196;28;20069;-85
2023/04/15 01:12:22;;;;;;;11.85;5.88;;;;;;;8.12;71.50;99018.09;5000137;28;20076;-84
2023/04/15 01:14:48;;;;;;;7.38;5.20;;;;;;;8.16;71.58;99008.91;4998667;28;20049;-85
2023/04/15 01:17:16;;;;;;;9.60;5.35;;;;;;;8.10;71.45;99010.31;4994085;28;20046;-85
2023/04/15 01:19:43;;;;;;;10.88;4.88;;;;;;;7.98;71.80;99012.25;5006992;28;20069;-85
2023/04/15 01:22:10;;;;;;;12.35;5.38;;;;;;;8.08;70.86;99017.53;5009600;28;20057;-85
2023/04/15 01:24:37;;;;;;;11.18;5.95;;;;;;;8.14;70.27;99029.34;4997172;28;20124;-84
2023/04/15 01:27:04;;;;;;;12.30;6.00;;;;;;;8.00;70.54;99036.75;5010605;28;20065;-85
2023/04/15 01:29:34;;;;;;;10.80;5.10;;;;;;;8.03;69.76;99030.34;5011093;28;20042;-85
2023/04/15 01:32:01;;;;;;;11.82;5.22;;;;;;;7.90;70.03;99035.91;5009950;28;20491;-85
2023/04/15 01:34:46;;;;;;;10.40;5.05;;;;;;;7.95;70.15;99032.84;4982867;28;21331;-85
2023/04/15 01:37:32;;;;;;;10.52;4.72;;;;;;;7.89;70.92;99023.66;5012144;28;20091;-85
2023/04/15 01:39:58;;;;;;;7.30;5.00;;;;;;;7.88;70.90;99026.44;5009850;28;20694;-85
2023/04/15 01:42:26;;;;;;;13.13;5.40;;;;;;;7.78;70.59;99023.78;4990898;28;20049;-86
2023/04/15 01:44:54;;;;;;;10.38;5.60;;;;;;;7.75;70.71;99022.25;4998914;28;20466;-85
2023/04/15 01:47:22;;;;;;;13.73;5.15;;;;;;;7.62;71.31;99019.03;5012154;28;20065;-85
2023/04/15 01:49:50;;;;;;;10.68;4.95;;;;;;;7.68;70.90;99026.41;4999220;28;20710;-85
2023/04/15 01:52:18;;;;;;;10.05;4.95;;;;;;;7.72;70.60;99027.00;4982877;28;20041;-85
2023/04/15 01:54:46;;;;;;;8.02;4.68;;;;;;;7.64;71.15;99022.38;4998364;28;20410;-84
2023/04/15 01:57:14;;;;;;;12.23;5.65;;;;;;;7.64;70.97;99019.75;4992415;28;20054;-85
2023/04/15 01:59:42;;;;;;;10.10;5.40;;;;;;;7.74;70.92;99017.13;5001174;28;20057;-84
2023/04/15 02:02:11;;;;;;;12.07;5.60;;;;;;;7.74;70.59;99017.13;4985910;28;20053;-85
2023/04/15 02:04:39;;;;;;;10.48;5.20;;;;;;;7.59;71.61;99019.31;5000665;28;20447;-86
2023/04/15 02:07:07;;;;;;;11.68;5.47;;;;;;;7.58;71.40;99022.91;5004282;28;20042;-85
2023/04/15 02:09:35;;;;;;;12.57;5.32;;;;;;;7.60;71.37;99024.44;4984818;28;20068;-86
2023/04/15 02:12:03;;;;;;;13.23;4.97;;;;;;;7.52;71.66;99021.66;4982796;28;20053;-85
2023/04/15 02:14:31;;;;;;;12.40;5.43;;;;;;;7.64;71.43;99019.75;4989137;28;20643;-85
2023/04/15 02:17:06;;;;;;;10.00;4.95;;;;;;;7.56;71.15;99023.06;4995308;28;20052;-85
2023/04/15 02:19:34;;;;;;;11.13;5.18;;;;;;;7.56;71.19;99019.59;5004542;28;20076;-85
2023/04/15 02:22:03;;;;;;;10.85;4.57;;;;;;;7.57;70.91;99021.25;5014713;28;21776;-85
2023/04/15 02:24:32;;;;;;;8.02;5.20;;;;;;;7.45;71.14;99022.34;5001685;28;20046;-85
2023/04/15 02:27:01;;;;;;;10.68;4.75;;;;;;;7.55;70.80;99020.56;5000640;28;20052;-85
2023/04/15 02:29:31;;;;;;;9.63;4.80;;;;;;;7.56;70.54;99019.59;5004091;28;20049;-85
2023/04/15 02:32:00;;;;;;;7.97;4.68;;;;;;;7.52;70.49;99021.66;5001721;28;20045;-85
2023/04/15 02:34:30;;;;;;;7.07;4.32;;;;;;;7.46;70.22;99024.88;5018829;28;20483;-85
2023/04/15 02:36:58;;;;;;;6.07;4.10;;;;;;;7.42;70.37;99023.44;5001246;28;20041;-85
2023/04/15 02:39:26;;;;;;;9.27;4.60;;;;;;;7.35;70.61;99019.69;5014030;28;20527;-86
2023/04/15 02:41:54;;;;;;;7.20;4.07;;;;;;;7.31;70.68;99021.75;5007300;28;20045;-86
2023/04/15 02:44:23;;;;;;;10.82;5.03;;;;;;;7.40;70.73;99025.38;4983041;28;20050;-85
2023/04/15 02:46:55;;;;;;;9.52;4.40;;;;;;;7.24;71.11;99017.97;5011270;28;20434;-85
2023/04/15 02:49:24;;;;;;;7.22;4.45;;;;;;;7.21;71.37;99012.97;4982371;28;20054;-85
2023/04/15 02:51:52;;;;;;;7.43;4.30;;;;;;;7.23;71.14;99016.31;4994643;28;20053;-85
2023/04/15 02:54:24;;;;;;;10.05;4.80;;;;;;;7.17;71.03;99007.16;5018144;28;20051;-85
2023/04/15 02:56:54;;;;;;;10.10;4.45;;;;;;;7.16;71.55;99008.09;4985967;28;20053;-85
2023/04/15 02:59:23;;;;;;;8.40;4.40;;;;;;;7.26;71.66;99012.59;4999363;28;20590;-85
2023/04/15 03:01:51;;;;;;;9.02;4.78;;;;;;;7.22;71.65;99016.44;4999933;28;20712;-85
2023/04/15 03:04:19;;;;;;;7.03;4.40;;;;;;;7.21;71.54;99010.34;5010916;28;20050;-85
2023/04/15 03:06:47;;;;;;;11.75;4.93;;;;;;;7.21;71.29;99007.69;4985682;28;20049;-85
2023/04/15 03:09:15;;;;;;;5.75;4.15;;;;;;;7.15;71.50;99011.72;5001570;28;20056;-85
2023/04/15 03:11:43;;;;;;;11.85;4.78;;;;;;;7.14;71.48;99003.91;5011469;28;20566;-85
2023/04/15 03:14:11;;;;;;;10.52;5.03;;;;;;;7.04;71.83;99009.16;4995818;28;20055;-85
2023/04/15 03:16:43;;;;;;;4.97;4.13;;;;;;;7.16;71.54;99012.53;4986592;28;20041;-85
2023/04/15 03:19:13;;;;;;;10.10;4.47;;;;;;;7.17;71.15;99007.16;4999542;28;21424;-85
2023/04/15 03:21:43;;;;;;;9.93;4.68;;;;;;;7.15;71.37;99010.88;4989284;28;20056;-86
2023/04/15 03:24:11;;;;;;;8.30;4.15;;;;;;;7.26;70.80;99010.78;5009891;28;20417;-85
2023/04/15 03:26:39;;;;;;;6.05;4.18;;;;;;;7.16;71.44;99005.47;4990044;28;20063;-85
2023/04/15 03:29:12;;;;;;;6.10;4.38;;;;;;;7.08;71.99;99010.56;4996818;28;20052;-85
2023/04/15 03:31:41;;;;;;;9.77;4.72;;;;;;;7.07;71.94;99006.28;4985308;28;20060;-85
2023/04/15 03:34:09;;;;;;;7.72;4.32;;;;;;;7.11;72.24;99007.66;5013640;28;20482;-85
2023/04/15 03:36:37;;;;;;;7.53;4.13;;;;;;;7.02;72.33;99004.97;4981820;28;20041;-84
2023/04/15 03:39:05;;;;;;;6.60;4.25;;;;;;;7.09;72.23;99001.69;5009180;28;20046;-85
2023/04/15 03:41:33;;;;;;;8.13;4.00;;;;;;;7.10;72.52;99002.53;5015746;28;20050;-85
2023/04/15 03:44:01;;;;;;;8.93;4.43;;;;;;;7.07;72.21;99001.00;5013049;28;20042;-85
2023/04/15 03:46:29;;;;;;;9.80;4.32;;;;;;;6.99;72.32;99005.25;5009465;28;20045;-85
2023/04/15 03:48:57;;;;;;;7.50;4.00;;;;;;;6.99;72.77;99005.25;5007691;28;20045;-86
2023/04/15 03:51:26;;;;;;;6.35;4.32;;;;;;;6.92;72.53;98997.88;5012457;28;20042;-86
2023/04/15 03:53:54;;;;;;;7.30;4.35;;;;;;;6.88;73.07;98995.63;4997199;28;20582;-85
2023/04/15 03:56:23;;;;;;;8.77;4.53;;;;;;;6.91;73.07;98992.72;4998304;28;20056;-85
2023/04/15 03:58:50;;;;;;;7.70;4.40;;;;;;;6.89;72.91;98997.28;4994223;28;20596;-84
2023/04/15 04:01:18;;;;;;;5.72;3.60;;;;;;;6.93;72.75;98998.72;5000712;28;20049;-85
2023/04/15 04:03:46;;;;;;;12.77;4.10;;;;;;;6.90;72.66;98991.06;5013625;28;20136;-85
2023/04/15 04:06:15;;;;;;;7.18;3.92;;;;;;;6.94;72.54;98992.44;5006686;28;20042;-85
2023/04/15 04:08:43;;;;;;;7.13;4.43;;;;;;;6.95;72.46;98994.97;5016357;28;20406;-84
2023/04/15 04:11:11;;;;;;;7.45;4.07;;;;;;;6.92;72.81;99003.16;5011963;28;20041;-85
2023/04/15 04:13:39;;;;;;;6.22;3.80;;;;;;;6.84;72.95;99000.31;4982236;28;20050;-85
2023/04/15 04:16:07;;;;;;;7.70;4.95;;;;;;;6.83;73.16;99001.31;4994286;28;20402;-85
2023/04/15 04:18:35;;;;;;;7.70;3.85;;;;;;;6.90;72.90;98994.53;5010832;28;20044;-86
2023/04/15 04:21:04;;;;;;;6.95;3.95;;;;;;;6.76;72.70;98999.34;4982268;28;20056;-85
2023/04/15 04:23:32;;;;;;;9.60;4.68;;;;;;;6.79;73.23;99002.53;4995506;28;20056;-85
2023/04/15 04:26:00;;;;;;;6.45;4.10;;;;;;;6.80;73.27;99014.78;4998438;28;22536;-85
2023/04/15 04:28:28;;;;;;;6.22;3.88;;;;;;;6.75;72.92;99009.06;4995064;28;20053;-85
2023/04/15 04:30:56;;;;;;;6.47;3.78;;;;;;;6.79;72.68;99012.25;5001573;28;20045;-85
2023/04/15 04:33:24;;;;;;;6.65;3.95;;;;;;;6.76;72.55;99016.00;4999233;28;20055;-85
2023/04/15 04:35:51;;;;;;;8.23;3.78;;;;;;;6.80;72.56;99025.31;5010985;28;20050;-85
2023/04/15 04:38:19;;;;;;;9.13;4.53;;;;;;;6.80;72.21;99030.59;5006961;28;20492;-85
2023/04/15 04:40:47;;;;;;;7.97;4.00;;;;;;;6.74;72.34;99023.19;5008144;28;20052;-85
2023/04/15 04:43:15;;;;;;;7.22;4.25;;;;;;;6.66;72.63;99028.28;5013087;28;20063;-85
2023/04/15 04:45:43;;;;;;;6.18;3.90;;;;;;;6.64;72.83;99028.44;4988084;28;20061;-85
2023/04/15 04:48:11;;;;;;;6.13;3.78;;;;;;;6.60;73.02;99029.66;5007664;28;20042;-85
2023/04/15 04:50:40;;;;;;;7.97;4.38;;;;;;;6.63;73.22;99025.94;5002427;28;20050;-84
2023/04/15 04:53:07;;;;;;;7.30;3.97;;;;;;;6.58;73.31;99022.84;5012224;28;20041;-85
2023/04/15 04:55:35;;;;;;;8.05;3.95;;;;;;;6.61;73.21;99030.50;5010751;28;20512;-85
2023/04/15 04:58:03;;;;;;;10.82;4.10;;;;;;;6.62;73.09;99030.38;5002687;28;20046;-85
2023/04/15 05:00:31;;;;;;;10.27;4.47;;;;;;;6.63;72.85;99029.41;5014758;28;20581;-85
2023/04/15 05:02:59;;;;;;;7.75;4.35;;;;;;;6.65;72.59;99027.47;4979374;28;20057;-85
2023/04/15 05:05:28;;;;;;;7.72;4.75;;;;;;;6.60;72.80;99032.28;5011815;28;20045;-85
2023/04/15 05:07:56;;;;;;;8.02;5.00;;;;;;;6.64;72.80;99031.09;5004574;28;20058;-85
2023/04/15 05:10:24;;;;;;;10.15;4.60;;;;;;;6.53;72.85;99033.78;4997033;28;20053;-84
2023/04/15 05:12:52;;;;;;;10.70;4.97;;;;;;;6.56;72.98;99032.69;5010691;28;20049;-84
2023/04/15 05:15:20;;;;;;;9.65;4.53;;;;;;;6.60;72.88;99031.47;4995721;28;20048;-85
2023/04/15 05:17:48;;;;;;;9.32;5.25;;;;;;;6.41;73.05;99040.09;5009465;28;20445;-85
2023/04/15 05:20:16;;;;;;;13.18;4.95;;;;;;;6.43;73.39;99031.06;5014508;28;20042;-84
2023/04/15 05:22:44;;;;;;;27.33;14.48;;;;;;;6.41;73.83;99035.66;5012560;28;20099;-86
2023/04/15 05:25:12;;;;;;;14.18;7.40;;;;;;;6.38;73.69;99035.06;5010956;28;20043;-84
2023/04/15 05:27:40;;;;;;;6.60;4.40;;;;;;;6.50;73.51;99032.25;5017257;28;20042;-84
2023/04/15 05:30:09;;;;;;;8.57;3.97;;;;;;;6.48;73.55;99042.06;5008025;28;20633;-85
2023/04/15 05:32:40;;;;;;;7.88;4.68;;;;;;;6.49;73.37;99035.84;4982809;28;20497;-85
2023/04/15 05:35:08;;;;;;;6.68;4.35;;;;;;;6.54;73.39;99040.75;5016823;28;20520;-85
2023/04/15 05:37:36;;;;;;;9.38;4.78;;;;;;;6.49;74.15;99032.38;5015621;28;20045;-85
2023/04/15 05:40:04;;;;;;;5.75;4.10;;;;;;;6.43;73.15;99039.00;5011420;28;20045;-85
2023/04/15 05:42:33;;;;;;;10.18;4.95;;;;;;;6.45;72.58;99039.69;5014205;28;20052;-85
2023/04/15 05:45:04;;;;;;;9.20;4.53;;;;;;;6.51;72.88;99049.75;5001439;28;20055;-85
2023/04/15 05:47:32;;;;;;;7.35;4.50;;;;;;;6.46;73.04;99037.91;5014031;28;20353;-86
2023/04/15 05:50:00;;;;;;;14.95;5.93;;;;;;;6.53;72.61;99044.31;4999369;28;20046;-85
2023/04/15 05:52:28;;;;;;;8.48;5.32;;;;;;;6.45;73.94;99052.88;5018905;28;20060;-86
2023/04/15 05:54:56;;;;;;;13.32;5.70;;;;;;;6.48;73.64;99039.44;4987981;28;20056;-85
2023/04/15 05:57:24;;;;;;;13.35;6.32;;;;;;;6.44;73.82;99051.22;5017279;28;21475;-84
2023/04/15 05:59:52;;;;;;;14.75;5.85;;;;;;;6.64;72.51;99061.88;5014537;28;20049;-85
2023/04/15 06:02:20;;;;;;;10.52;5.60;;;;;;;6.61;72.43;99055.06;5012384;28;20406;-85
2023/04/15 06:04:49;;;;;;;15.85;5.63;;;;;;;6.61;72.48;99055.06;5002488;28;20041;-85
2023/04/15 06:07:16;;;;;;;9.65;4.50;;;;;;;6.58;73.00;99055.31;5003222;28;20503;-84
2023/04/15 06:09:44;;;;;;;10.10;4.85;;;;;;;6.58;72.91;99055.31;5000685;28;20065;-85
2023/04/15 06:12:13;;;;;;;9.32;4.85;;;;;;;6.68;72.62;99053.59;5015125;28;20048;-85
2023/04/15 06:14:41;;;;;;;9.88;4.93;;;;;;;6.64;73.02;99056.59;4998076;28;20052;-86
2023/04/15 06:17:09;;;;;;;9.70;5.47;;;;;;;6.67;73.19;99057.19;5013357;28;21443;-85
2023/04/15 06:19:37;;;;;;;8.00;4.65;;;;;;;6.60;72.91;99065.75;4998420;28;20533;-85
2023/04/15 06:22:06;;;;;;;13.07;5.57;;;;;;;6.72;72.18;99072.66;5002196;28;20056;-84
2023/04/15 06:24:35;;;;;;;12.02;6.60;;;;;;;6.79;72.46;99067.66;4995140;28;20531;-85
2023/04/15 06:27:03;;;;;;;12.32;5.43;;;;;;;6.78;72.57;99079.19;5004897;28;20046;-85
2023/04/15 06:29:31;;;;;;;9.43;5.28;;;;;;;6.76;72.55;99065.28;5006866;28;20491;-85
2023/04/15 06:31:59;;;;;;;8.65;5.55;;;;;;;6.80;72.36;99072.00;5013427;28;20049;-85
2023/04/15 06:34:27;;;;;;;10.35;6.57;;;;;;;6.68;72.73;99056.22;5015963;28;20038;-85
2023/04/15 06:36:56;;;;;;;10.50;5.97;;;;;;;6.83;72.97;99071.72;5006339;28;20052;-85
2023/04/15 06:39:24;;;;;;;9.43;5.25;;;;;;;6.86;72.94;99061.72;5006252;28;20478;-85
2023/04/15 06:41:52;;;;;;;10.20;5.68;;;;;;;6.88;73.07;99065.09;4992587;28;20041;-86
2023/04/15 06:44:21;;;;;;;11.20;5.10;;;;;;;6.94;72.88;99066.34;5012092;28;20072;-84
2023/04/15 06:46:49;;;;;;;9.25;5.55;;;;;;;6.99;72.95;99068.59;5007589;28;20247;-85
2023/04/15 06:49:17;;;;;;;10.35;5.50;;;;;;;7.00;73.07;99070.28;5010834;28;20053;-86
2023/04/15 06:51:45;;;;;;;13.60;5.63;;;;;;;6.98;72.97;99067.78;5003331;28;20402;-85
2023/04/15 06:54:13;;;;;;;11.75;4.93;;;;;;;6.99;72.81;99066.78;4996989;28;20050;-85
2023/04/15 06:56:41;;;;;;;8.88;5.03;;;;;;;7.04;72.86;99067.22;5013352;28;20059;-85
2023/04/15 06:59:09;;;;;;;8.10;4.43;;;;;;;7.01;73.16;99064.03;5014898;28;20047;-85
2023/04/15 07:01:37;;;;;;;12.63;5.20;;;;;;;7.05;73.01;99068.09;5014645;28;20045;-85
2023/04/15 07:04:05;;;;;;;9.00;5.15;;;;;;;7.11;72.71;99075.47;4999943;28;20054;-85
2023/04/15 07:06:34;;;;;;;8.25;4.63;;;;;;;7.25;72.90;99061.94;4992531;28;20037;-85
2023/04/15 07:09:04;;;;;;;8.20;5.55;;;;;;;7.18;72.46;99069.53;4988049;28;20313;-84
2023/04/15 07:11:32;;;;;;;10.73;4.88;;;;;;;7.22;72.80;99062.16;5014270;28;20056;-85
2023/04/15 07:14:00;;;;;;;9.55;5.75;;;;;;;7.31;72.55;99068.47;5011860;28;20374;-85
2023/04/15 07:16:28;;;;;;;11.07;5.32;;;;;;;7.27;72.89;99070.53;5010207;28;20048;-85
2023/04/15 07:18:57;;;;;;;10.73;5.22;;;;;;;7.32;73.25;99063.03;5010415;28;20046;-84
2023/04/15 07:21:26;;;;;;;8.93;5.18;;;;;;;7.45;73.12;99068.06;4996396;28;20049;-85
2023/04/15 07:23:54;;;;;;;9.50;5.20;;;;;;;7.53;72.69;99064.75;4997077;28;20075;-85
2023/04/15 07:26:22;;;;;;;11.02;5.32;;;;;;;7.64;72.85;99069.13;5003684;28;20046;-85
2023/04/15 07:28:50;;;;;;;8.75;4.95;;;;;;;7.62;72.72;99061.31;4986109;28;20049;-85
2023/04/15 07:31:18;;;;;;;11.55;5.03;;;;;;;7.51;73.39;99067.56;4995364;28;20421;-84
2023/04/15 07:33:46;;;;;;;8.98;5.97;;;;;;;7.62;72.95;99058.69;4995255;28;20192;-85
2023/04/15 07:36:14;;;;;;;8.18;5.15;;;;;;;7.61;72.83;99062.31;5009211;28;20041;-85
2023/04/15 07:38:42;;;;;;;8.57;5.13;;;;;;;7.78;72.65;99061.63;5007741;28;20052;-84
2023/04/15 07:41:10;;;;;;;8.48;4.72;;;;;;;7.80;72.98;99069.41;4995616;28;20051;-84
2023/04/15 07:43:38;;;;;;;9.38;4.82;;;;;;;7.89;72.69;99067.78;5007375;28;20056;-85
2023/04/15 07:46:07;;;;;;;9.98;5.25;;;;;;;7.95;72.42;99070.69;5010032;28;20045;-85
2023/04/15 07:48:52;;;;;;;10.38;4.65;;;;;;;7.87;72.25;99067.91;5026014;28;20129;-86
2023/04/15 07:51:26;;;;;;;7.60;5.00;;;;;;;8.11;71.86;99078.06;5001894;28;20549;-84
2023/04/15 07:53:54;;;;;;;9.73;5.28;;;;;;;8.08;72.34;99069.59;5013359;28;20069;-84
2023/04/15 07:56:22;;;;;;;11.32;5.95;;;;;;;8.15;72.12;99066.25;4993646;28;20735;-84
2023/04/15 07:58:50;;;;;;;11.48;5.68;;;;;;;8.33;71.71;99055.81;5000014;28;20429;-84
2023/04/15 08:01:18;;;;;;;16.02;5.40;;;;;;;8.43;71.95;99059.31;5010651;28;20041;-85
2023/04/15 08:03:47;;;;;;;9.70;5.03;;;;;;;8.53;71.90;99053.19;5007583;28;20050;-84
2023/04/15 08:06:15;;;;;;;8.52;4.95;;;;;;;8.56;71.58;99058.19;4998713;28;20049;-84
2023/04/15 08:08:43;;;;;;;9.60;5.05;;;;;;;8.64;71.52;99063.59;5007630;28;20052;-84
2023/04/15 08:11:11;;;;;;;12.57;4.85;;;;;;;8.68;70.98;99059.69;4988242;28;21923;-85
2023/04/15 08:13:39;;;;;;;8.65;5.43;;;;;;;8.79;70.95;99056.03;5007688;28;20056;-85
2023/04/15 08:16:24;;;;;;;9.80;5.20;;;;;;;8.78;70.60;99046.44;5009370;28;20124;-85
2023/04/15 08:18:54;;;;;;;14.07;5.28;;;;;;;8.89;70.61;99043.59;4992945;28;20916;-85
2023/04/15 08:21:23;;;;;;;9.48;5.60;;;;;;;8.93;71.01;99041.50;4977784;28;20057;-85
2023/04/15 08:23:52;;;;;;;8.38;5.10;;;;;;;8.99;70.77;99043.56;4971859;28;20060;-85
2023/04/15 08:26:21;;;;;;;14.23;5.18;;;;;;;9.00;70.76;99045.22;4971506;28;20046;-85
2023/04/15 08:28:49;;;;;;;16.15;5.85;;;;;;;9.07;70.63;99044.50;5009450;28;20068;-85
2023/04/15 08:31:17;;;;;;;13.05;5.55;;;;;;;9.07;70.46;99035.75;4986424;28;20511;-85
2023/04/15 08:33:45;;;;;;;10.32;5.43;;;;;;;9.09;70.58;99039.06;4998844;28;20509;-84
2023/04/15 08:36:13;;;;;;;11.70;5.55;;;;;;;9.16;70.38;99039.31;4995657;28;20050;-85
2023/04/15 08:38:43;;;;;;;9.73;6.00;;;;;;;9.15;70.32;99030.53;4999848;28;20052;-85
2023/04/15 08:41:17;;;;;;;10.35;6.38;;;;;;;9.19;70.35;99039.03;5012148;28;20513;-85
2023/04/15 08:43:52;;;;;;;12.55;6.13;;;;;;;9.19;70.71;99034.56;4991980;28;20046;-85
2023/04/15 08:46:20;;;;;;;9.80;5.43;;;;;;;9.27;70.88;99044.44;4991159;28;20415;-84
2023/04/15 08:48:48;;;;;;;12.80;6.05;;;;;;;9.32;70.92;99042.19;5006743;28;21809;-85
2023/04/15 08:51:17;;;;;;;13.73;6.40;;;;;;;9.39;70.86;99045.91;5009689;28;20049;-85
2023/04/15 08:53:46;;;;;;;11.65;6.32;;;;;;;9.46;71.00;99039.00;5010349;28;20467;-86
2023/04/15 08:56:17;;;;;;;10.38;5.95;;;;;;;9.56;71.04;99045.09;5016706;28;20601;-85
2023/04/15 08:58:45;;;;;;;8.48;5.78;;;;;;;9.61;70.53;99041.19;5012063;28;20057;-85
2023/04/15 09:01:13;;;;;;;12.20;5.35;;;;;;;9.67;70.54;99046.72;5017104;28;20045;-86
2023/04/15 09:03:42;;;;;;;14.45;6.20;;;;;;;9.71;70.82;99041.94;5011903;28;20051;-84
2023/04/15 09:06:11;;;;;;;10.25;5.55;;;;;;;9.74;70.68;99047.81;5002720;28;20405;-85
2023/04/15 09:08:39;;;;;;;8.98;5.85;;;;;;;9.75;71.10;99040.69;4998744;28;20053;-85
2023/04/15 09:11:07;;;;;;;10.15;5.38;;;;;;;9.72;71.37;99036.50;5014011;28;20049;-85
2023/04/15 09:13:35;;;;;;;9.68;6.03;;;;;;;9.84;71.13;99044.22;5011863;28;20041;-85
2023/04/15 09:16:04;;;;;;;10.93;3.97;;;;;;;9.91;70.03;99040.81;5010271;28;20049;-85
2023/04/15 09:18:34;;;;;;;5.55;3.47;;;;;;;10.01;69.77;99035.44;5011120;28;20056;-85
2023/04/15 09:21:07;;;;;;;6.00;3.67;;;;;;;10.08;67.46;99041.00;5020373;28;20049;-86
2023/04/15 09:23:39;;;;;;;;;;;;;;;10.03;65.88;99045.94;5000835;28;20053;-87
2023/04/15 09:26:08;;;;;;;10.25;3.88;;;;;;;10.23;67.33;99047.44;5018317;28;20459;-85
2023/04/15 09:28:41;;;;;;;8.70;4.68;;;;;;;10.26;65.88;99052.44;5017124;28;20056;-85
2023/04/15 09:31:09;;;;;;;9.27;4.77;;;;;;;10.35;65.52;99051.53;5014042;28;20060;-85
2023/04/15 09:33:57;;;;;;;10.02;4.03;;;;;;;10.35;63.00;99056.00;4997392;28;20444;-85
2023/04/15 09:36:28;;;;;;;6.97;4.10;;;;;;;10.45;64.51;99055.91;5008788;28;20398;-86
2023/04/15 09:38:57;;;;;;;11.50;4.65;;;;;;;10.49;62.44;99059.94;5011102;28;20048;-86
2023/04/15 09:41:26;;;;;;;8.82;3.85;;;;;;;10.55;63.62;99054.00;4998683;28;20055;-85
2023/04/15 09:43:54;;;;;;;9.55;4.43;;;;;;;10.59;62.83;99052.72;5024136;28;20049;-86
2023/04/15 09:46:43;;;;;;;8.35;3.97;;;;;;;10.58;62.35;99057.19;5003515;28;20045;-86
2023/04/15 09:49:11;;;;;;;10.13;3.72;;;;;;;10.68;64.01;99058.91;5013785;28;20643;-85
2023/04/15 09:51:39;;;;;;;6.20;3.97;;;;;;;10.76;64.41;99066.91;5002865;28;20132;-86
2023/04/15 09:54:11;;;;;;;6.68;3.60;;;;;;;10.80;63.88;99070.94;5014823;28;20068;-86
2023/04/15 09:56:42;;;;;;;8.55;3.75;;;;;;;10.77;61.65;99057.97;5019573;28;20045;-85
2023/04/15 09:59:10;;;;;;;13.73;4.97;;;;;;;10.87;63.67;99058.72;5014024;28;20045;-85
2023/04/15 10:01:39;;;;;;;8.35;4.55;;;;;;;10.93;63.00;99065.22;5016987;28;20045;-86
2023/04/15 10:04:08;;;;;;;8.70;4.72;;;;;;;10.91;61.17;99070.66;5013410;28;20045;-85
2023/04/15 10:06:36;;;;;;;11.07;4.40;;;;;;;10.93;61.29;99075.84;5014977;28;20049;-85
2023/04/15 10:09:05;;;;;;;8.68;4.82;;;;;;;10.95;61.38;99072.03;5015238;28;20052;-85
2023/04/15 10:11:34;;;;;;;16.27;5.53;;;;;;;10.93;60.41;99070.53;5015087;28;20051;-85
2023/04/15 10:14:02;;;;;;;11.15;5.40;;;;;;;10.96;59.42;99067.56;4993906;28;20050;-85
2023/04/15 10:16:32;;;;;;;13.50;5.47;;;;;;;10.95;59.47;99082.66;4987839;28;20041;-85
2023/04/15 10:19:01;;;;;;;8.25;4.63;;;;;;;10.96;59.51;99078.19;5010391;28;20037;-86
2023/04/15 10:21:29;;;;;;;11.77;5.35;;;;;;;11.01;58.63;99089.16;5016582;28;20050;-86
2023/04/15 10:23:57;;;;;;;9.05;5.05;;;;;;;10.93;56.21;99089.94;5009350;28;21756;-84
2023/04/15 10:26:25;;;;;;;12.75;4.78;;;;;;;11.11;57.35;99081.91;4996078;28;20050;-84
2023/04/15 10:28:53;;;;;;;11.00;4.80;;;;;;;11.02;59.01;99093.50;5015090;28;20053;-85
2023/04/15 10:31:21;;;;;;;10.23;4.57;;;;;;;11.00;58.14;99101.63;4998245;28;20048;-84
2023/04/15 10:33:50;;;;;;;8.48;3.95;;;;;;;10.97;58.30;99091.31;5008656;28;20619;-84
2023/04/15 10:36:18;;;;;;;7.63;3.53;;;;;;;10.98;58.68;99095.63;4988649;28;20052;-85
2023/04/15 10:38:46;;;;;;;7.57;3.65;;;;;;;11.00;57.91;99098.13;5008790;28;20468;-85
2023/04/15 10:41:33;;;;;;;6.18;3.60;;;;;;;10.94;58.45;99102.25;4991525;28;20056;-84
2023/04/15 10:44:03;;;;;;;7.90;3.05;;;;;;;10.98;56.13;99100.09;5014511;28;20457;-85
2023/04/15 10:46:43;;;;;;;5.03;3.53;;;;;;;10.89;58.08;99115.16;5008331;28;20625;-85
2023/04/15 10:49:13;;;;;;;6.22;4.07;;;;;;;10.87;56.99;99106.53;4979184;28;20722;-85
2023/04/15 10:51:48;;;;;;;8.00;2.65;;;;;;;10.92;54.87;99114.03;5004388;28;20049;-84
2023/04/15 10:54:30;;;;;;;4.90;2.42;;;;;;;10.84;56.49;99117.47;5013273;28;21270;-85
2023/04/15 10:57:01;;;;;;;5.75;2.25;;;;;;;10.89;56.40;99117.81;5015841;28;20500;-85
2023/04/15 10:59:30;;;;;;;6.88;2.95;;;;;;;10.90;55.97;99121.31;5009214;28;20053;-85
2023/04/15 11:02:03;;;;;;;4.20;2.60;;;;;;;10.93;55.26;99116.50;4992146;28;20053;-86
2023/04/15 11:04:50;;;;;;;4.35;2.75;;;;;;;10.85;54.87;99127.09;4993721;28;20347;-85
2023/04/15 11:07:46;;;;;;;5.00;2.33;;;;;;;10.83;53.93;99131.72;5012692;28;20838;-85
2023/04/15 11:10:16;;;;;;;5.15;2.42;;;;;;;10.86;55.14;99116.31;5013557;28;20421;-84
2023/04/15 11:12:45;;;;;;;5.43;2.50;;;;;;;10.89;55.91;99131.09;5010842;28;20046;-85
2023/04/15 11:15:29;;;;;;;7.35;2.55;;;;;;;10.91;54.27;99136.25;5003862;28;20052;-85
2023/04/15 11:18:08;;;;;;;2.65;1.98;;;;;;;11.00;55.66;99114.06;5010973;28;20063;-85
2023/04/15 11:20:37;;;;;;;4.63;2.30;;;;;;;11.06;54.42;99118.75;5008389;28;20491;-85
2023/04/15 11:23:05;;;;;;;7.10;2.22;;;;;;;11.15;54.13;99124.97;5013204;28;20052;-85
2023/04/15 11:25:42;;;;;;;4.03;2.05;;;;;;;11.13;54.81;99135.75;5006550;28;21430;-85
2023/04/15 11:28:12;;;;;;;5.32;2.22;;;;;;;11.15;54.88;99127.63;5010518;28;20056;-85
2023/04/15 11:30:41;;;;;;;5.88;2.00;;;;;;;11.16;53.43;99127.44;5007789;28;20600;-85
2023/04/15 11:33:13;;;;;;;3.58;1.83;;;;;;;11.20;53.15;99142.09;4991923;28;20396;-85
2023/04/15 11:35:42;;;;;;;4.18;2.00;;;;;;;11.25;53.02;99137.16;5013859;28;20067;-85
2023/04/15 11:38:12;;;;;;;5.72;2.00;;;;;;;11.30;53.85;99145.47;4997935;28;20045;-84
2023/04/15 11:40:41;;;;;;;3.63;1.42;;;;;;;11.29;51.98;99135.81;5006067;28;20046;-85
2023/04/15 11:43:14;;;;;;;3.55;1.40;;;;;;;11.34;49.03;99146.00;4996378;28;20046;-85
2023/04/15 11:45:56;;;;;;;3.53;1.15;;;;;;;11.22;47.61;99126.84;5010457;28;20531;-84